sensor_id;sensor_type;location;lat;lon;timestamp;pressure;altitude;pressure_sealevel;temperature;humidity
34237;BME280;20501;45.956;13.632;2023-02-28T00:01:13;101171.28;;;6.75;46.11
34237;BME280;20501;45.956;13.632;2023-02-28T00:03:39;101169.69;;;6.85;44.12
34237;BME280;20501;45.956;13.632;2023-02-28T00:06:06;101163.59;;;6.41;45.98
34237;BME280;20501;45.956;13.632;2023-02-28T00:08:31;101176.41;;;5.78;46.46
34237;BME280;20501;45.956;13.632;2023-02-28T00:11:01;101171.41;;;7.13;43.96
34237;BME280;20501;45.956;13.632;2023-02-28T00:13:28;101169.97;;;7.48;45.59
34237;BME280;20501;45.956;13.632;2023-02-28T00:16:07;101169.50;;;6.04;47.86
34237;BME280;20501;45.956;13.632;2023-02-28T00:18:34;101164.72;;;5.20;44.84
34237;BME280;20501;45.956;13.632;2023-02-28T00:21:00;101173.16;;;6.60;43.72
34237;BME280;20501;45.956;13.632;2023-02-28T00:23:26;101172.94;;;7.18;44.27
34237;BME280;20501;45.956;13.632;2023-02-28T00:25:52;101171.59;;;6.14;45.38
34237;BME280;20501;45.956;13.632;2023-02-28T00:28:18;101180.28;;;6.74;45.50
34237;BME280;20501;45.956;13.632;2023-02-28T00:30:44;101178.47;;;6.32;45.99
34237;BME280;20501;45.956;13.632;2023-02-28T00:33:09;101185.81;;;6.58;47.21
34237;BME280;20501;45.956;13.632;2023-02-28T00:35:35;101195.50;;;6.88;46.42
34237;BME280;20501;45.956;13.632;2023-02-28T00:38:00;101200.34;;;6.12;47.64
34237;BME280;20501;45.956;13.632;2023-02-28T00:40:26;101195.00;;;7.36;43.36
34237;BME280;20501;45.956;13.632;2023-02-28T00:42:52;101199.63;;;6.52;45.22
34237;BME280;20501;45.956;13.632;2023-02-28T00:45:17;101207.28;;;5.40;44.80
34237;BME280;20501;45.956;13.632;2023-02-28T00:47:43;101203.00;;;6.41;46.13
34237;BME280;20501;45.956;13.632;2023-02-28T00:50:09;101196.84;;;6.53;45.97
34237;BME280;20501;45.956;13.632;2023-02-28T00:52:34;101200.66;;;6.49;45.47
34237;BME280;20501;45.956;13.632;2023-02-28T00:55:00;101200.47;;;6.66;43.67
34237;BME280;20501;45.956;13.632;2023-02-28T00:57:25;101218.41;;;7.87;44.44
34237;BME280;20501;45.956;13.632;2023-02-28T00:59:51;101213.09;;;5.78;44.50
34237;BME280;20501;45.956;13.632;2023-02-28T01:02:20;101209.72;;;7.30;46.18
34237;BME280;20501;45.956;13.632;2023-02-28T01:04:45;101202.72;;;6.16;45.60
34237;BME280;20501;45.956;13.632;2023-02-28T01:07:11;101208.06;;;7.55;41.72
34237;BME280;20501;45.956;13.632;2023-02-28T01:09:36;101218.69;;;7.56;46.07
34237;BME280;20501;45.956;13.632;2023-02-28T01:12:02;101210.00;;;6.14;43.65
34237;BME280;20501;45.956;13.632;2023-02-28T01:14:27;101210.28;;;6.39;44.55
34237;BME280;20501;45.956;13.632;2023-02-28T01:16:53;101215.19;;;5.72;44.84
34237;BME280;20501;45.956;13.632;2023-02-28T01:19:18;101213.81;;;6.10;48.41
34237;BME280;20501;45.956;13.632;2023-02-28T01:21:44;101217.53;;;6.51;47.73
34237;BME280;20501;45.956;13.632;2023-02-28T01:24:09;101214.34;;;6.73;43.86
34237;BME280;20501;45.956;13.632;2023-02-28T01:26:35;101215.63;;;7.22;43.19
34237;BME280;20501;45.956;13.632;2023-02-28T01:29:00;101201.41;;;6.65;44.39
34237;BME280;20501;45.956;13.632;2023-02-28T01:31:26;101213.56;;;7.66;45.32
34237;BME280;20501;45.956;13.632;2023-02-28T01:33:51;101207.50;;;6.82;45.53
34237;BME280;20501;45.956;13.632;2023-02-28T01:36:19;101208.59;;;5.64;45.75
34237;BME280;20501;45.956;13.632;2023-02-28T01:38:46;101209.59;;;5.16;46.62
34237;BME280;20501;45.956;13.632;2023-02-28T01:41:32;101216.31;;;6.42;48.71
34237;BME280;20501;45.956;13.632;2023-02-28T01:44:05;101214.06;;;6.78;47.04
34237;BME280;20501;45.956;13.632;2023-02-28T01:46:33;101214.69;;;7.36;45.73
34237;BME280;20501;45.956;13.632;2023-02-28T01:49:06;101212.00;;;6.54;43.87
34237;BME280;20501;45.956;13.632;2023-02-28T01:51:44;101209.44;;;7.48;46.87
34237;BME280;20501;45.956;13.632;2023-02-28T01:54:18;101207.50;;;6.26;45.16
34237;BME280;20501;45.956;13.632;2023-02-28T01:56:49;101218.53;;;7.32;44.58
34237;BME280;20501;45.956;13.632;2023-02-28T01:59:31;101212.97;;;6.10;45.15
34237;BME280;20501;45.956;13.632;2023-02-28T02:01:58;101205.47;;;5.41;47.08
34237;BME280;20501;45.956;13.632;2023-02-28T02:04:28;101205.41;;;6.02;49.34
34237;BME280;20501;45.956;13.632;2023-02-28T02:06:58;101222.34;;;6.46;48.71
34237;BME280;20501;45.956;13.632;2023-02-28T02:09:24;101198.84;;;5.77;46.80
34237;BME280;20501;45.956;13.632;2023-02-28T02:11:49;101202.88;;;7.39;46.68
34237;BME280;20501;45.956;13.632;2023-02-28T02:28:17;101225.19;;;5.85;45.90
34237;BME280;20501;45.956;13.632;2023-02-28T02:34:29;101253.16;;;4.88;48.61
34237;BME280;20501;45.956;13.632;2023-02-28T02:37:28;101250.19;;;4.44;49.73
34237;BME280;20501;45.956;13.632;2023-02-28T02:40:00;101245.97;;;5.20;47.64
34237;BME280;20501;45.956;13.632;2023-02-28T02:42:39;101251.56;;;5.62;48.74
34237;BME280;20501;45.956;13.632;2023-02-28T02:45:12;101233.72;;;5.77;46.36
34237;BME280;20501;45.956;13.632;2023-02-28T02:47:42;101240.66;;;6.25;45.44
34237;BME280;20501;45.956;13.632;2023-02-28T02:50:14;101238.66;;;6.28;49.13
34237;BME280;20501;45.956;13.632;2023-02-28T02:52:49;101228.31;;;6.37;46.92
34237;BME280;20501;45.956;13.632;2023-02-28T02:55:17;101236.44;;;6.49;46.98
34237;BME280;20501;45.956;13.632;2023-02-28T02:57:51;101237.75;;;6.57;44.68
34237;BME280;20501;45.956;13.632;2023-02-28T03:00:20;101233.56;;;6.53;44.53
34237;BME280;20501;45.956;13.632;2023-02-28T03:02:49;101243.06;;;6.15;46.34
34237;BME280;20501;45.956;13.632;2023-02-28T03:05:23;101251.91;;;7.15;47.51
34237;BME280;20501;45.956;13.632;2023-02-28T03:07:50;101248.97;;;7.73;46.14
34237;BME280;20501;45.956;13.632;2023-02-28T03:13:00;101253.47;;;6.77;44.90
34237;BME280;20501;45.956;13.632;2023-02-28T03:15:37;101243.53;;;6.92;43.74
34237;BME280;20501;45.956;13.632;2023-02-28T03:18:19;101249.25;;;6.01;45.19
34237;BME280;20501;45.956;13.632;2023-02-28T03:21:00;101243.00;;;6.73;47.58
34237;BME280;20501;45.956;13.632;2023-02-28T03:23:41;101243.81;;;7.83;46.11
34237;BME280;20501;45.956;13.632;2023-02-28T03:26:20;101255.63;;;7.80;45.17
34237;BME280;20501;45.956;13.632;2023-02-28T03:31:30;101234.72;;;6.34;48.13
34237;BME280;20501;45.956;13.632;2023-02-28T03:36:32;101226.72;;;5.14;47.97
34237;BME280;20501;45.956;13.632;2023-02-28T03:39:05;101228.88;;;6.27;49.54
34237;BME280;20501;45.956;13.632;2023-02-28T03:41:49;101226.78;;;7.16;46.68
34237;BME280;20501;45.956;13.632;2023-02-28T03:45:38;101220.19;;;5.79;48.89
34237;BME280;20501;45.956;13.632;2023-02-28T03:47:43;101215.09;;;4.83;48.65
34237;BME280;20501;45.956;13.632;2023-02-28T03:50:14;101223.16;;;5.13;50.73
34237;BME280;20501;45.956;13.632;2023-02-28T03:52:50;101229.25;;;4.85;49.08
34237;BME280;20501;45.956;13.632;2023-02-28T03:55:17;101213.22;;;5.76;46.47
34237;BME280;20501;45.956;13.632;2023-02-28T03:57:46;101209.41;;;5.19;50.69
34237;BME280;20501;45.956;13.632;2023-02-28T04:00:21;101215.31;;;5.10;51.52
34237;BME280;20501;45.956;13.632;2023-02-28T04:02:53;101209.91;;;6.16;48.68
34237;BME280;20501;45.956;13.632;2023-02-28T04:05:22;101209.22;;;5.98;46.15
34237;BME280;20501;45.956;13.632;2023-02-28T04:07:48;101203.09;;;6.81;48.51
34237;BME280;20501;45.956;13.632;2023-02-28T04:10:14;101192.84;;;5.43;49.61
34237;BME280;20501;45.956;13.632;2023-02-28T04:12:40;101197.81;;;7.07;47.91
34237;BME280;20501;45.956;13.632;2023-02-28T04:15:06;101198.66;;;7.35;47.90
34237;BME280;20501;45.956;13.632;2023-02-28T04:17:32;101205.19;;;6.63;48.42
34237;BME280;20501;45.956;13.632;2023-02-28T04:19:58;101202.50;;;6.48;46.82
34237;BME280;20501;45.956;13.632;2023-02-28T04:22:23;101199.03;;;6.61;47.52
34237;BME280;20501;45.956;13.632;2023-02-28T04:24:52;101206.25;;;6.31;47.19
34237;BME280;20501;45.956;13.632;2023-02-28T04:27:20;101205.44;;;5.86;49.51
34237;BME280;20501;45.956;13.632;2023-02-28T04:29:45;101202.78;;;5.10;51.08
34237;BME280;20501;45.956;13.632;2023-02-28T04:32:11;101185.25;;;5.80;47.87
34237;BME280;20501;45.956;13.632;2023-02-28T04:34:37;101205.22;;;4.99;49.62
34237;BME280;20501;45.956;13.632;2023-02-28T04:37:02;101198.88;;;5.16;48.38
34237;BME280;20501;45.956;13.632;2023-02-28T04:39:28;101203.31;;;6.07;47.78
34237;BME280;20501;45.956;13.632;2023-02-28T04:41:55;101207.97;;;5.44;48.15
34237;BME280;20501;45.956;13.632;2023-02-28T04:44:21;101207.44;;;6.69;48.65
34237;BME280;20501;45.956;13.632;2023-02-28T04:46:47;101214.88;;;7.33;47.51
34237;BME280;20501;45.956;13.632;2023-02-28T04:49:14;101207.66;;;7.74;46.65
34237;BME280;20501;45.956;13.632;2023-02-28T04:51:40;101201.84;;;7.80;46.00
34237;BME280;20501;45.956;13.632;2023-02-28T04:54:07;101205.47;;;6.44;46.36
34237;BME280;20501;45.956;13.632;2023-02-28T04:56:32;101203.84;;;5.98;46.34
34237;BME280;20501;45.956;13.632;2023-02-28T04:58:58;101199.66;;;6.23;46.67
34237;BME280;20501;45.956;13.632;2023-02-28T05:03:54;101201.78;;;5.72;49.63
34237;BME280;20501;45.956;13.632;2023-02-28T05:06:21;101214.38;;;7.01;48.21
34237;BME280;20501;45.956;13.632;2023-02-28T05:08:48;101216.03;;;7.82;46.62
34237;BME280;20501;45.956;13.632;2023-02-28T05:11:25;101218.72;;;6.18;47.89
34237;BME280;20501;45.956;13.632;2023-02-28T05:13:52;101212.19;;;7.20;48.84
34237;BME280;20501;45.956;13.632;2023-02-28T05:16:18;101200.19;;;5.09;50.85
34237;BME280;20501;45.956;13.632;2023-02-28T05:18:43;101205.97;;;6.22;49.19
34237;BME280;20501;45.956;13.632;2023-02-28T05:21:29;101214.09;;;5.46;50.32
34237;BME280;20501;45.956;13.632;2023-02-28T05:23:57;101205.22;;;6.19;48.86
34237;BME280;20501;45.956;13.632;2023-02-28T05:26:24;101204.88;;;6.53;47.89
34237;BME280;20501;45.956;13.632;2023-02-28T05:28:49;101203.50;;;6.04;50.42
34237;BME280;20501;45.956;13.632;2023-02-28T05:31:15;101204.88;;;5.81;50.16
34237;BME280;20501;45.956;13.632;2023-02-28T05:33:41;101204.59;;;6.43;47.32
34237;BME280;20501;45.956;13.632;2023-02-28T05:36:07;101202.66;;;6.74;49.24
34237;BME280;20501;45.956;13.632;2023-02-28T05:38:32;101205.97;;;5.48;49.23
34237;BME280;20501;45.956;13.632;2023-02-28T05:40:58;101205.75;;;5.96;48.66
34237;BME280;20501;45.956;13.632;2023-02-28T05:43:23;101199.97;;;4.65;50.35
34237;BME280;20501;45.956;13.632;2023-02-28T05:45:49;101198.53;;;6.69;48.74
34237;BME280;20501;45.956;13.632;2023-02-28T05:48:15;101205.34;;;5.28;48.83
34237;BME280;20501;45.956;13.632;2023-02-28T05:50:40;101213.47;;;7.27;48.49
34237;BME280;20501;45.956;13.632;2023-02-28T05:53:08;101209.97;;;6.43;46.84
34237;BME280;20501;45.956;13.632;2023-02-28T05:55:33;101205.13;;;5.17;52.10
34237;BME280;20501;45.956;13.632;2023-02-28T05:58:01;101209.13;;;6.43;47.19
34237;BME280;20501;45.956;13.632;2023-02-28T06:00:26;101210.09;;;7.51;47.77
34237;BME280;20501;45.956;13.632;2023-02-28T06:02:52;101224.44;;;7.78;47.18
34237;BME280;20501;45.956;13.632;2023-02-28T06:05:21;101216.47;;;6.68;46.24
34237;BME280;20501;45.956;13.632;2023-02-28T06:07:46;101229.22;;;5.47;48.95
34237;BME280;20501;45.956;13.632;2023-02-28T06:10:12;101227.22;;;5.51;51.65
34237;BME280;20501;45.956;13.632;2023-02-28T06:12:38;101233.84;;;6.48;48.74
34237;BME280;20501;45.956;13.632;2023-02-28T06:15:04;101244.16;;;7.38;48.33
34237;BME280;20501;45.956;13.632;2023-02-28T06:17:29;101238.41;;;7.70;46.94
34237;BME280;20501;45.956;13.632;2023-02-28T06:19:55;101231.06;;;6.91;48.79
34237;BME280;20501;45.956;13.632;2023-02-28T06:22:20;101226.22;;;7.51;47.16
34237;BME280;20501;45.956;13.632;2023-02-28T06:24:46;101242.34;;;6.69;48.00
34237;BME280;20501;45.956;13.632;2023-02-28T06:27:11;101245.34;;;6.50;50.46
34237;BME280;20501;45.956;13.632;2023-02-28T06:29:37;101246.31;;;7.33;48.40
34237;BME280;20501;45.956;13.632;2023-02-28T06:32:05;101238.06;;;6.52;48.27
34237;BME280;20501;45.956;13.632;2023-02-28T06:34:31;101240.09;;;6.48;50.31
34237;BME280;20501;45.956;13.632;2023-02-28T06:36:56;101238.66;;;5.99;47.91
34237;BME280;20501;45.956;13.632;2023-02-28T06:39:27;101254.91;;;7.38;48.44
34237;BME280;20501;45.956;13.632;2023-02-28T06:41:53;101255.03;;;7.09;47.34
34237;BME280;20501;45.956;13.632;2023-02-28T06:44:18;101251.50;;;6.23;50.66
34237;BME280;20501;45.956;13.632;2023-02-28T06:46:45;101248.72;;;6.95;48.77
34237;BME280;20501;45.956;13.632;2023-02-28T06:49:11;101267.41;;;5.81;47.55
34237;BME280;20501;45.956;13.632;2023-02-28T06:51:41;101265.25;;;7.44;47.99
34237;BME280;20501;45.956;13.632;2023-02-28T06:54:07;101267.28;;;6.57;49.60
34237;BME280;20501;45.956;13.632;2023-02-28T06:56:34;101267.03;;;7.84;46.49
34237;BME280;20501;45.956;13.632;2023-02-28T06:58:59;101278.81;;;6.73;46.89
34237;BME280;20501;45.956;13.632;2023-02-28T07:01:25;101272.72;;;7.26;47.02
34237;BME280;20501;45.956;13.632;2023-02-28T07:03:51;101282.47;;;8.46;46.17
34237;BME280;20501;45.956;13.632;2023-02-28T07:06:19;101275.34;;;7.81;44.15
34237;BME280;20501;45.956;13.632;2023-02-28T07:08:44;101275.81;;;6.49;48.68
34237;BME280;20501;45.956;13.632;2023-02-28T07:11:10;101285.81;;;7.18;48.11
34237;BME280;20501;45.956;13.632;2023-02-28T07:13:36;101272.06;;;7.50;48.14
34237;BME280;20501;45.956;13.632;2023-02-28T07:16:04;101263.81;;;6.84;46.46
34237;BME280;20501;45.956;13.632;2023-02-28T07:18:31;101272.63;;;7.40;45.92
34237;BME280;20501;45.956;13.632;2023-02-28T07:20:57;101271.41;;;6.77;45.75
34237;BME280;20501;45.956;13.632;2023-02-28T07:23:23;101267.34;;;6.99;47.47
34237;BME280;20501;45.956;13.632;2023-02-28T07:25:50;101275.13;;;7.16;44.80
34237;BME280;20501;45.956;13.632;2023-02-28T07:28:16;101270.50;;;7.33;47.71
34237;BME280;20501;45.956;13.632;2023-02-28T07:30:42;101261.16;;;7.38;45.82
34237;BME280;20501;45.956;13.632;2023-02-28T07:33:07;101266.31;;;7.41;46.65
34237;BME280;20501;45.956;13.632;2023-02-28T07:35:33;101257.38;;;6.86;46.14
34237;BME280;20501;45.956;13.632;2023-02-28T07:37:59;101276.84;;;7.44;48.51
34237;BME280;20501;45.956;13.632;2023-02-28T07:40:25;101271.41;;;8.25;44.98
34237;BME280;20501;45.956;13.632;2023-02-28T07:42:50;101271.13;;;6.67;47.07
34237;BME280;20501;45.956;13.632;2023-02-28T07:45:16;101276.31;;;7.12;46.82
34237;BME280;20501;45.956;13.632;2023-02-28T07:47:43;101279.34;;;6.93;48.83
34237;BME280;20501;45.956;13.632;2023-02-28T07:50:11;101272.47;;;7.97;46.80
34237;BME280;20501;45.956;13.632;2023-02-28T07:52:37;101273.72;;;7.10;46.93
34237;BME280;20501;45.956;13.632;2023-02-28T07:55:04;101272.06;;;7.22;47.23
34237;BME280;20501;45.956;13.632;2023-02-28T07:57:30;101267.69;;;7.07;47.80
34237;BME280;20501;45.956;13.632;2023-02-28T07:59:55;101276.13;;;7.96;46.92
34237;BME280;20501;45.956;13.632;2023-02-28T08:02:20;101265.81;;;7.22;45.35
34237;BME280;20501;45.956;13.632;2023-02-28T08:04:46;101275.72;;;7.62;44.94
34237;BME280;20501;45.956;13.632;2023-02-28T08:07:13;101272.66;;;8.32;44.27
34237;BME280;20501;45.956;13.632;2023-02-28T08:09:39;101270.03;;;8.82;45.13
34237;BME280;20501;45.956;13.632;2023-02-28T08:12:07;101282.06;;;8.14;43.55
34237;BME280;20501;45.956;13.632;2023-02-28T08:14:32;101265.78;;;8.02;43.24
34237;BME280;20501;45.956;13.632;2023-02-28T08:16:57;101272.03;;;8.29;44.94
34237;BME280;20501;45.956;13.632;2023-02-28T08:19:23;101269.44;;;8.14;43.01
34237;BME280;20501;45.956;13.632;2023-02-28T08:21:48;101277.97;;;7.55;45.74
34237;BME280;20501;45.956;13.632;2023-02-28T08:24:14;101279.72;;;7.69;44.19
34237;BME280;20501;45.956;13.632;2023-02-28T08:26:39;101284.75;;;7.61;46.59
34237;BME280;20501;45.956;13.632;2023-02-28T08:29:05;101275.31;;;7.40;44.82
34237;BME280;20501;45.956;13.632;2023-02-28T08:31:30;101279.81;;;7.54;47.43
34237;BME280;20501;45.956;13.632;2023-02-28T08:33:56;101277.28;;;7.38;45.16
34237;BME280;20501;45.956;13.632;2023-02-28T08:36:24;101288.75;;;7.68;46.60
34237;BME280;20501;45.956;13.632;2023-02-28T08:38:50;101285.19;;;6.85;45.48
34237;BME280;20501;45.956;13.632;2023-02-28T08:41:16;101303.06;;;7.68;45.46
34237;BME280;20501;45.956;13.632;2023-02-28T08:43:41;101300.81;;;8.54;45.51
34237;BME280;20501;45.956;13.632;2023-02-28T08:46:08;101298.19;;;8.65;44.99
34237;BME280;20501;45.956;13.632;2023-02-28T08:48:36;101296.09;;;8.82;44.06
34237;BME280;20501;45.956;13.632;2023-02-28T08:51:10;101303.69;;;8.51;43.03
34237;BME280;20501;45.956;13.632;2023-02-28T08:53:37;101293.53;;;8.16;43.97
34237;BME280;20501;45.956;13.632;2023-02-28T08:56:09;101295.59;;;8.12;46.55
34237;BME280;20501;45.956;13.632;2023-02-28T08:58:35;101303.03;;;8.60;44.86
34237;BME280;20501;45.956;13.632;2023-02-28T09:01:08;101296.34;;;8.27;44.48
34237;BME280;20501;45.956;13.632;2023-02-28T09:03:33;101294.56;;;7.07;46.10
34237;BME280;20501;45.956;13.632;2023-02-28T09:06:00;101293.25;;;7.54;48.47
34237;BME280;20501;45.956;13.632;2023-02-28T09:08:27;101296.75;;;7.82;44.62
34237;BME280;20501;45.956;13.632;2023-02-28T09:10:53;101308.63;;;7.52;47.23
34237;BME280;20501;45.956;13.632;2023-02-28T09:13:20;101298.94;;;8.16;46.10
34237;BME280;20501;45.956;13.632;2023-02-28T09:15:45;101304.19;;;8.82;43.57
34237;BME280;20501;45.956;13.632;2023-02-28T09:18:12;101307.34;;;8.37;44.38
34237;BME280;20501;45.956;13.632;2023-02-28T09:20:38;101296.97;;;6.97;48.69
34237;BME280;20501;45.956;13.632;2023-02-28T09:23:05;101299.38;;;7.29;45.75
34237;BME280;20501;45.956;13.632;2023-02-28T09:25:30;101295.88;;;6.72;46.75
34237;BME280;20501;45.956;13.632;2023-02-28T09:27:55;101304.06;;;6.98;47.25
34237;BME280;20501;45.956;13.632;2023-02-28T09:30:21;101300.09;;;7.46;47.34
34237;BME280;20501;45.956;13.632;2023-02-28T09:32:46;101292.00;;;6.91;47.52
34237;BME280;20501;45.956;13.632;2023-02-28T09:35:18;101302.63;;;7.07;46.80
34237;BME280;20501;45.956;13.632;2023-02-28T09:37:43;101300.19;;;7.17;46.62
34237;BME280;20501;45.956;13.632;2023-02-28T09:40:10;101308.81;;;7.89;46.74
34237;BME280;20501;45.956;13.632;2023-02-28T09:42:37;101299.09;;;7.06;46.26
34237;BME280;20501;45.956;13.632;2023-02-28T09:45:22;101305.72;;;7.28;46.91
34237;BME280;20501;45.956;13.632;2023-02-28T09:47:50;101306.31;;;7.19;46.24
34237;BME280;20501;45.956;13.632;2023-02-28T09:50:28;101310.72;;;7.47;45.69
34237;BME280;20501;45.956;13.632;2023-02-28T09:52:55;101314.75;;;7.27;47.72
34237;BME280;20501;45.956;13.632;2023-02-28T09:55:40;101317.44;;;6.85;48.56
34237;BME280;20501;45.956;13.632;2023-02-28T09:58:26;101304.41;;;7.48;48.48
34237;BME280;20501;45.956;13.632;2023-02-28T10:01:03;101314.38;;;7.19;46.36
34237;BME280;20501;45.956;13.632;2023-02-28T10:08:36;101305.66;;;7.70;46.15
34237;BME280;20501;45.956;13.632;2023-02-28T10:11:07;101307.66;;;7.53;46.44
34237;BME280;20501;45.956;13.632;2023-02-28T10:14:16;101309.78;;;7.48;45.48
34237;BME280;20501;45.956;13.632;2023-02-28T10:16:50;101307.72;;;7.52;46.65
34237;BME280;20501;45.956;13.632;2023-02-28T10:22:27;101303.78;;;7.57;45.81
34237;BME280;20501;45.956;13.632;2023-02-28T10:24:55;101304.69;;;7.71;47.46
34237;BME280;20501;45.956;13.632;2023-02-28T10:27:29;101307.66;;;7.53;45.94
34237;BME280;20501;45.956;13.632;2023-02-28T10:29:57;101305.72;;;7.55;46.22
34237;BME280;20501;45.956;13.632;2023-02-28T10:32:25;101303.84;;;7.16;47.48
34237;BME280;20501;45.956;13.632;2023-02-28T10:35:18;101311.63;;;7.06;47.13
34237;BME280;20501;45.956;13.632;2023-02-28T10:37:48;101317.94;;;7.47;46.60
34237;BME280;20501;45.956;13.632;2023-02-28T10:43:39;101305.63;;;6.88;47.63
34237;BME280;20501;45.956;13.632;2023-02-28T10:48:43;101305.16;;;7.50;46.30
34237;BME280;20501;45.956;13.632;2023-02-28T10:51:15;101310.59;;;7.36;47.29
34237;BME280;20501;45.956;13.632;2023-02-28T10:53:51;101294.91;;;7.15;48.48
34237;BME280;20501;45.956;13.632;2023-02-28T10:56:20;101299.94;;;7.62;47.44
34237;BME280;20501;45.956;13.632;2023-02-28T10:59:00;101299.25;;;7.85;46.73
34237;BME280;20501;45.956;13.632;2023-02-28T11:03:57;101285.59;;;7.21;46.26
34237;BME280;20501;45.956;13.632;2023-02-28T11:06:29;101284.88;;;7.32;46.09
34237;BME280;20501;45.956;13.632;2023-02-28T11:09:00;101293.19;;;7.41;46.14
34237;BME280;20501;45.956;13.632;2023-02-28T11:11:29;101283.81;;;7.34;46.28
34237;BME280;20501;45.956;13.632;2023-02-28T11:14:02;101281.69;;;7.93;44.95
34237;BME280;20501;45.956;13.632;2023-02-28T11:16:33;101279.31;;;7.88;45.66
34237;BME280;20501;45.956;13.632;2023-02-28T11:19:01;101270.88;;;7.67;45.89
34237;BME280;20501;45.956;13.632;2023-02-28T11:21:35;101273.09;;;7.87;46.23
34237;BME280;20501;45.956;13.632;2023-02-28T11:24:41;101260.09;;;8.07;44.83
34237;BME280;20501;45.956;13.632;2023-02-28T11:29:56;101261.47;;;8.13;43.90
34237;BME280;20501;45.956;13.632;2023-02-28T11:32:24;101253.53;;;8.24;43.87
34237;BME280;20501;45.956;13.632;2023-02-28T11:35:14;101245.00;;;8.30;44.33
34237;BME280;20501;45.956;13.632;2023-02-28T11:37:42;101246.81;;;8.43;44.63
34237;BME280;20501;45.956;13.632;2023-02-28T11:40:31;101250.25;;;8.32;44.33
34237;BME280;20501;45.956;13.632;2023-02-28T11:51:48;101240.06;;;8.87;42.75
34237;BME280;20501;45.956;13.632;2023-02-28T12:06:22;101217.25;;;9.28;42.27
34237;BME280;20501;45.956;13.632;2023-02-28T12:11:51;101207.28;;;8.56;42.84
34237;BME280;20501;45.956;13.632;2023-02-28T12:22:31;101196.34;;;9.43;41.73
34237;BME280;20501;45.956;13.632;2023-02-28T12:27:42;101193.22;;;9.01;43.53
34237;BME280;20501;45.956;13.632;2023-02-28T12:30:28;101194.03;;;8.90;43.12
34237;BME280;20501;45.956;13.632;2023-02-28T12:33:09;101189.25;;;9.18;41.83
34237;BME280;20501;45.956;13.632;2023-02-28T12:35:52;101186.25;;;8.74;42.35
34237;BME280;20501;45.956;13.632;2023-02-28T12:38:53;101184.38;;;9.59;42.87
34237;BME280;20501;45.956;13.632;2023-02-28T12:41:41;101183.56;;;8.86;41.90
34237;BME280;20501;45.956;13.632;2023-02-28T12:44:49;101177.81;;;8.79;41.73
34237;BME280;20501;45.956;13.632;2023-02-28T12:47:10;101171.75;;;8.75;42.69
34237;BME280;20501;45.956;13.632;2023-02-28T12:49:45;101172.31;;;8.30;42.40
34237;BME280;20501;45.956;13.632;2023-02-28T12:52:13;101178.13;;;8.37;43.30
34237;BME280;20501;45.956;13.632;2023-02-28T12:54:50;101167.41;;;8.86;42.51
34237;BME280;20501;45.956;13.632;2023-02-28T12:57:42;101171.09;;;8.85;41.70
34237;BME280;20501;45.956;13.632;2023-02-28T13:00:14;101168.84;;;8.41;42.38
34237;BME280;20501;45.956;13.632;2023-02-28T13:05:26;101161.88;;;8.76;41.97
34237;BME280;20501;45.956;13.632;2023-02-28T13:10:23;101151.34;;;9.08;41.29
34237;BME280;20501;45.956;13.632;2023-02-28T13:12:51;101164.69;;;9.34;40.68
34237;BME280;20501;45.956;13.632;2023-02-28T13:15:25;101152.13;;;9.22;40.84
34237;BME280;20501;45.956;13.632;2023-02-28T13:17:56;101147.53;;;9.35;40.69
34237;BME280;20501;45.956;13.632;2023-02-28T13:20:25;101142.28;;;9.09;40.91
34237;BME280;20501;45.956;13.632;2023-02-28T13:22:55;101148.44;;;9.58;40.36
34237;BME280;20501;45.956;13.632;2023-02-28T13:27:51;101138.78;;;9.67;39.95
34237;BME280;20501;45.956;13.632;2023-02-28T13:33:29;101136.31;;;10.32;38.87
34237;BME280;20501;45.956;13.632;2023-02-28T13:38:35;101125.53;;;10.10;40.50
34237;BME280;20501;45.956;13.632;2023-02-28T13:44:07;101134.69;;;9.50;40.08
34237;BME280;20501;45.956;13.632;2023-02-28T14:05:36;101117.09;;;9.22;41.56
34237;BME280;20501;45.956;13.632;2023-02-28T14:08:23;101114.94;;;9.03;40.97
34237;BME280;20501;45.956;13.632;2023-02-28T14:10:53;101115.38;;;9.21;41.36
34237;BME280;20501;45.956;13.632;2023-02-28T14:13:44;101109.72;;;9.12;43.42
34237;BME280;20501;45.956;13.632;2023-02-28T14:16:14;101110.00;;;9.32;41.82
34237;BME280;20501;45.956;13.632;2023-02-28T14:21:27;101118.16;;;9.66;42.05
34237;BME280;20501;45.956;13.632;2023-02-28T14:37:49;101110.91;;;9.08;42.44
34237;BME280;20501;45.956;13.632;2023-02-28T14:40:21;101106.59;;;8.46;42.90
34237;BME280;20501;45.956;13.632;2023-02-28T14:42:56;101110.66;;;9.58;43.32
34237;BME280;20501;45.956;13.632;2023-02-28T14:45:22;101097.34;;;9.10;41.91
34237;BME280;20501;45.956;13.632;2023-02-28T14:47:51;101100.22;;;9.42;42.57
34237;BME280;20501;45.956;13.632;2023-02-28T14:50:22;101098.13;;;9.46;41.00
34237;BME280;20501;45.956;13.632;2023-02-28T14:52:52;101104.06;;;9.74;43.52
34237;BME280;20501;45.956;13.632;2023-02-28T14:55:19;101099.75;;;9.02;42.19
34237;BME280;20501;45.956;13.632;2023-02-28T14:57:53;101105.78;;;9.05;43.91
34237;BME280;20501;45.956;13.632;2023-02-28T15:02:47;101105.88;;;9.04;44.01
34237;BME280;20501;45.956;13.632;2023-02-28T15:07:39;101123.31;;;9.11;42.84
34237;BME280;20501;45.956;13.632;2023-02-28T15:12:40;101102.34;;;9.03;42.27
34237;BME280;20501;45.956;13.632;2023-02-28T15:15:15;101093.41;;;8.78;44.11
34237;BME280;20501;45.956;13.632;2023-02-28T15:17:42;101114.81;;;8.69;43.58
34237;BME280;20501;45.956;13.632;2023-02-28T15:20:12;101108.38;;;8.82;43.98
34237;BME280;20501;45.956;13.632;2023-02-28T15:22:39;101110.34;;;8.80;42.76
34237;BME280;20501;45.956;13.632;2023-02-28T15:25:05;101107.50;;;8.33;43.44